Time;durP1;ratioP1;P1;durP2;ratioP2;P2;SDS_P1;SDS_P2;PMS_P1;PMS_P2;Temp;Humidity;BMP_temperature;BMP_pressure;BME280_temperature;BME280_humidity;BME280_pressure;Samples;Min_cycle;Max_cycle;Signal;HPM_P1;HPM_P2
2022/12/03 00:00:48;;;;;;;1.75;1.63;;;18.20;71.90;;;;;;4978568;28;20057;-73
2022/12/03 00:03:13;;;;;;;1.58;1.48;;;18.20;71.90;;;;;;4978560;28;20404;-73
2022/12/03 00:05:39;;;;;;;1.75;1.65;;;18.20;71.90;;;;;;4978215;28;20027;-73
2022/12/03 00:08:04;;;;;;;2.83;1.70;;;18.20;71.90;;;;;;4995491;28;20045;-73
2022/12/03 00:10:30;;;;;;;2.47;1.77;;;18.20;72.00;;;;;;4995939;28;20034;-73
2022/12/03 00:12:56;;;;;;;1.75;1.65;;;18.20;72.00;;;;;;4977408;28;20027;-73
2022/12/03 00:15:21;;;;;;;1.70;1.60;;;18.20;72.00;;;;;;4978306;28;20026;-73
2022/12/03 00:17:47;;;;;;;2.15;1.92;;;18.20;72.00;;;;;;4993359;28;20050;-73
2022/12/03 00:20:17;;;;;;;1.52;1.42;;;18.20;72.10;;;;;;4958925;28;20027;-73
2022/12/03 00:22:43;;;;;;;1.67;1.58;;;18.20;72.10;;;;;;4958694;28;20114;-72
2022/12/03 00:25:09;;;;;;;1.55;1.45;;;18.10;72.10;;;;;;4958876;28;20105;-72
2022/12/03 00:27:34;;;;;;;2.90;1.80;;;18.10;72.10;;;;;;4976076;28;20059;-72
2022/12/03 00:30:00;;;;;;;1.73;1.63;;;18.10;72.20;;;;;;4958673;28;20023;-72
2022/12/03 00:32:25;;;;;;;2.63;1.73;;;18.10;72.20;;;;;;4958983;28;20027;-72
2022/12/03 00:34:51;;;;;;;1.70;1.60;;;18.10;72.20;;;;;;4958712;28;20027;-72
2022/12/03 00:37:17;;;;;;;1.52;1.42;;;18.10;72.30;;;;;;4975729;28;20023;-72
2022/12/03 00:39:42;;;;;;;2.58;1.48;;;18.10;72.20;;;;;;4976040;28;20023;-72
2022/12/03 00:42:08;;;;;;;1.70;1.60;;;18.10;72.20;;;;;;4958426;28;20027;-72
2022/12/03 00:44:33;;;;;;;1.80;1.70;;;18.10;72.40;;;;;;4975848;28;20064;-72
2022/12/03 00:46:59;;;;;;;1.60;1.50;;;18.10;72.40;;;;;;4975720;28;20050;-72
2022/12/03 00:49:25;;;;;;;1.88;1.52;;;18.10;72.40;;;;;;4975800;28;20114;-72
2022/12/03 00:51:51;;;;;;;1.67;1.50;;;18.10;72.50;;;;;;4958304;28;20504;-72
2022/12/03 00:54:16;;;;;;;1.98;1.60;;;18.10;72.50;;;;;;4975752;28;20026;-72
2022/12/03 00:56:42;;;;;;;1.55;1.45;;;18.10;73.50;;;;;;4975550;28;20035;-72
2022/12/03 00:59:08;;;;;;;1.65;1.42;;;18.10;72.50;;;;;;4975493;28;20034;-72
2022/12/03 01:01:33;;;;;;;1.60;1.50;;;18.10;72.50;;;;;;4958195;28;20094;-72
2022/12/03 01:03:59;;;;;;;1.65;1.55;;;18.00;72.40;;;;;;4958328;28;20540;-73
2022/12/03 01:06:24;;;;;;;1.55;1.45;;;18.00;72.50;;;;;;4974803;28;20453;-73
2022/12/03 01:08:50;;;;;;;1.50;1.35;;;18.00;72.60;;;;;;4969876;28;20476;-73
2022/12/03 01:14:00;;;;;;;2.40;1.52;;;18.00;72.60;;;;;;4994623;28;20022;-73
2022/12/03 01:16:25;;;;;;;1.45;1.35;;;18.00;72.70;;;;;;4994626;28;20026;-73
2022/12/03 01:18:51;;;;;;;2.47;1.60;;;18.00;72.70;;;;;;4983599;28;20457;-73
2022/12/03 01:21:18;;;;;;;1.70;1.52;;;18.00;72.70;;;;;;4973730;28;20091;-72
2022/12/03 01:23:43;;;;;;;1.65;1.40;;;18.00;72.80;;;;;;4975148;28;20019;-72
2022/12/03 01:26:09;;;;;;;2.25;1.40;;;18.00;72.80;;;;;;4975017;28;20027;-72
2022/12/03 01:28:34;;;;;;;2.10;1.70;;;18.00;72.80;;;;;;4973921;28;20023;-73
2022/12/03 01:33:44;;;;;;;1.75;1.65;;;18.00;72.90;;;;;;4973806;28;20046;-73
2022/12/03 01:36:10;;;;;;;1.50;1.40;;;18.00;73.00;;;;;;4973436;28;20038;-73
2022/12/03 01:38:35;;;;;;;1.50;1.40;;;18.00;73.00;;;;;;4974792;28;20027;-73
2022/12/03 01:41:01;;;;;;;3.00;1.65;;;17.90;73.00;;;;;;4973779;28;20053;-73
2022/12/03 01:43:27;;;;;;;1.92;1.60;;;18.00;73.00;;;;;;4973792;28;20425;-73
2022/12/03 01:45:52;;;;;;;1.88;1.27;;;17.90;74.00;;;;;;4973647;28;20061;-73
2022/12/03 01:48:18;;;;;;;1.70;1.52;;;17.90;73.00;;;;;;4973330;28;20031;-72
2022/12/03 01:50:43;;;;;;;4.00;1.67;;;17.90;73.00;;;;;;4973605;28;20027;-72
2022/12/03 01:53:10;;;;;;;1.60;1.50;;;17.90;73.00;;;;;;4974616;28;20023;-72
2022/12/03 01:55:36;;;;;;;1.42;1.30;;;17.90;73.00;;;;;;4973526;28;20026;-72
2022/12/03 01:58:02;;;;;;;2.22;1.45;;;18.00;73.10;;;;;;4973387;28;20101;-72
2022/12/03 02:00:27;;;;;;;3.20;1.45;;;17.90;73.00;;;;;;4973344;28;20026;-72
2022/12/03 02:02:58;;;;;;;1.45;1.35;;;17.90;73.10;;;;;;4973107;28;20030;-72
2022/12/03 02:05:26;;;;;;;1.63;1.20;;;18.00;73.20;;;;;;4973197;28;20049;-72
2022/12/03 02:07:51;;;;;;;1.42;1.33;;;17.90;73.10;;;;;;4976390;28;20047;-72
2022/12/03 02:10:19;;;;;;;1.60;1.50;;;17.90;73.10;;;;;;4976424;28;20027;-72
2022/12/03 02:12:49;;;;;;;1.85;1.10;;;17.90;73.10;;;;;;4960569;28;20015;-72
2022/12/03 02:15:15;;;;;;;1.63;1.33;;;17.90;73.10;;;;;;4976290;28;20026;-72
2022/12/03 02:17:41;;;;;;;3.40;1.30;;;17.90;73.10;;;;;;4974469;28;20399;-72
2022/12/03 02:20:07;;;;;;;1.27;1.17;;;17.90;73.10;;;;;;4940909;28;20477;-72
2022/12/03 02:22:54;;;;;;;1.40;1.30;;;17.90;73.20;;;;;;4941121;28;20027;-72
2022/12/03 02:25:24;;;;;;;1.35;1.25;;;17.90;73.20;;;;;;4974119;28;20031;-73
2022/12/03 02:27:50;;;;;;;1.23;1.13;;;17.90;73.20;;;;;;4957143;28;20389;-72
2022/12/03 02:30:18;;;;;;;1.77;1.20;;;17.90;73.20;;;;;;4940604;28;20027;-73
2022/12/03 02:32:44;;;;;;;1.33;1.23;;;17.90;73.20;;;;;;4956863;28;20106;-73
2022/12/03 02:35:16;;;;;;;1.70;1.23;;;17.90;73.30;;;;;;4941777;28;20114;-73
2022/12/03 02:37:41;;;;;;;1.73;1.20;;;17.90;73.40;;;;;;4961040;28;20022;-73
2022/12/03 02:40:09;;;;;;;2.65;1.10;;;17.90;73.30;;;;;;4944746;28;20077;-72
2022/12/03 02:42:35;;;;;;;1.20;1.10;;;17.90;73.20;;;;;;4960738;28;20031;-73
2022/12/03 02:45:09;;;;;;;1.20;1.10;;;17.90;73.20;;;;;;4944856;28;20031;-73
2022/12/03 02:47:43;;;;;;;1.38;1.27;;;17.90;73.20;;;;;;4945322;28;20519;-73
2022/12/03 02:50:10;;;;;;;1.35;1.23;;;17.90;73.30;;;;;;4945442;28;20181;-73
2022/12/03 02:52:36;;;;;;;1.27;1.17;;;17.90;73.30;;;;;;4960514;28;20018;-73
2022/12/03 02:55:02;;;;;;;1.40;1.00;;;17.90;73.40;;;;;;4960550;28;20031;-73
2022/12/03 02:57:27;;;;;;;2.05;1.00;;;17.90;73.50;;;;;;4944602;28;20022;-73
2022/12/03 02:59:53;;;;;;;1.23;1.00;;;17.90;73.40;;;;;;4944500;28;20507;-73
2022/12/03 03:02:20;;;;;;;2.47;1.15;;;17.90;73.50;;;;;;4944327;28;20033;-72
2022/12/03 03:04:45;;;;;;;1.45;1.10;;;17.90;73.60;;;;;;4944608;28;20249;-72
2022/12/03 03:07:11;;;;;;;3.38;1.23;;;17.90;73.60;;;;;;4956822;29;20495;-72
2022/12/03 03:09:37;;;;;;;1.42;1.08;;;17.90;73.60;;;;;;4940978;29;20371;-72
2022/12/03 03:12:03;;;;;;;2.45;1.23;;;17.90;73.60;;;;;;4940758;29;20024;-72
2022/12/03 03:14:28;;;;;;;2.10;1.30;;;17.90;73.50;;;;;;4957040;29;20074;-72
2022/12/03 03:16:56;;;;;;;0.90;0.90;;;17.90;73.60;;;;;;4940875;29;20497;-72
2022/12/03 03:19:26;;;;;;;1.13;1.00;;;17.90;73.70;;;;;;4943066;28;20032;-73
2022/12/03 03:21:52;;;;;;;1.33;1.23;;;17.90;73.60;;;;;;4938853;29;20083;-72
2022/12/03 03:24:18;;;;;;;1.30;1.20;;;17.90;73.70;;;;;;4937606;29;20023;-72
2022/12/03 03:26:44;;;;;;;1.20;1.10;;;17.90;73.70;;;;;;4937658;29;20067;-72
2022/12/03 03:29:09;;;;;;;2.13;1.10;;;17.80;73.60;;;;;;4937485;29;20055;-72
2022/12/03 03:31:35;;;;;;;1.13;0.98;;;17.80;73.70;;;;;;4938566;29;20071;-72
2022/12/03 03:34:00;;;;;;;1.50;1.10;;;17.80;74.70;;;;;;4937427;29;20032;-72
2022/12/03 03:36:26;;;;;;;1.00;0.90;;;17.90;73.80;;;;;;4937427;29;20032;-73
2022/12/03 03:38:52;;;;;;;2.13;1.20;;;17.80;73.80;;;;;;4937391;29;20457;-73
2022/12/03 03:41:18;;;;;;;0.90;0.82;;;17.80;73.80;;;;;;4937286;29;20024;-73
2022/12/03 03:43:43;;;;;;;2.10;1.10;;;17.80;73.80;;;;;;4937492;29;20024;-73
2022/12/03 03:46:09;;;;;;;1.38;1.05;;;17.80;73.80;;;;;;4936234;29;20050;-73
2022/12/03 03:48:35;;;;;;;1.17;1.08;;;17.80;73.90;;;;;;4936609;29;20032;-73
2022/12/03 03:51:07;;;;;;;1.35;1.00;;;17.80;73.90;;;;;;4937410;29;20385;-73
2022/12/03 03:53:33;;;;;;;;;;;17.80;73.90;;;;;;4937642;29;20170;-73
2022/12/03 03:55:58;;;;;;;1.08;1.00;;;17.80;73.90;;;;;;4936948;29;19997;-73
2022/12/03 03:58:24;;;;;;;0.98;0.93;;;17.80;74.00;;;;;;4938322;29;20019;-73
2022/12/03 04:00:50;;;;;;;1.30;1.20;;;17.80;74.00;;;;;;4936820;29;20083;-72
2022/12/03 04:03:15;;;;;;;1.17;1.02;;;17.80;73.90;;;;;;4936598;29;20478;-73
2022/12/03 04:05:41;;;;;;;0.80;0.80;;;17.80;73.90;;;;;;4938366;28;20038;-72
2022/12/03 04:08:06;;;;;;;2.85;0.90;;;17.80;75.00;;;;;;4982425;28;20034;-72
2022/12/03 04:13:16;;;;;;;1.05;0.90;;;17.80;74.00;;;;;;4995696;28;20074;-72
2022/12/03 04:15:42;;;;;;;1.70;1.10;;;17.80;74.00;;;;;;4995200;28;20034;-72
2022/12/03 04:22:38;;;;;;;0.95;0.95;;;17.80;74.10;;;;;;4994787;28;20034;-72
2022/12/03 04:23:37;;;;;;;1.85;1.10;;;17.80;74.10;;;;;;4981116;28;20391;-72
2022/12/03 04:28:49;;;;;;;0.88;0.88;;;17.80;74.10;;;;;;4980530;28;20037;-72
2022/12/03 04:36:49;;;;;;;1.67;1.10;;;17.80;74.30;;;;;;4897379;29;20043;-72
2022/12/03 04:39:15;;;;;;;1.27;1.17;;;17.80;74.30;;;;;;4897281;29;20059;-72
2022/12/03 04:41:41;;;;;;;1.23;1.00;;;17.80;74.30;;;;;;4897487;29;20040;-72
2022/12/03 04:46:50;;;;;;;1.23;1.05;;;17.80;74.40;;;;;;4897468;29;20069;-72
2022/12/03 04:49:16;;;;;;;1.13;1.00;;;17.80;74.40;;;;;;4881713;29;20042;-72
2022/12/03 04:51:42;;;;;;;1.70;0.90;;;17.80;74.40;;;;;;4897485;29;20036;-72
2022/12/03 04:54:07;;;;;;;1.15;1.05;;;17.80;74.40;;;;;;4897081;29;20408;-72
2022/12/03 04:56:33;;;;;;;2.88;1.00;;;17.80;74.50;;;;;;4897025;29;20385;-72
2022/12/03 04:58:58;;;;;;;0.93;0.88;;;17.80;74.40;;;;;;4881035;29;20048;-72
2022/12/03 05:01:24;;;;;;;1.10;1.00;;;17.80;74.40;;;;;;4896930;29;20404;-72
2022/12/03 05:03:50;;;;;;;1.00;0.90;;;17.80;74.40;;;;;;4896763;29;20040;-72
2022/12/03 05:06:15;;;;;;;2.17;0.90;;;17.80;74.40;;;;;;4896540;29;20048;-72
2022/12/03 05:08:41;;;;;;;0.82;0.82;;;17.80;74.40;;;;;;4896691;29;20041;-72
2022/12/03 05:11:06;;;;;;;0.93;0.93;;;17.80;74.40;;;;;;4925492;29;20043;-72
2022/12/03 05:13:32;;;;;;;1.40;0.88;;;17.80;74.50;;;;;;4969326;28;20034;-72
2022/12/03 05:15:58;;;;;;;1.05;0.93;;;17.80;74.40;;;;;;4994845;28;20037;-72
2022/12/03 05:18:23;;;;;;;1.02;0.95;;;17.80;74.50;;;;;;4987208;28;20094;-72
2022/12/03 05:20:49;;;;;;;2.65;0.90;;;17.80;74.40;;;;;;4975113;28;20082;-73
2022/12/03 05:23:14;;;;;;;0.88;0.80;;;17.80;74.50;;;;;;4957915;28;20034;-73
2022/12/03 05:25:40;;;;;;;0.73;0.73;;;17.80;74.50;;;;;;4957524;28;20150;-73
2022/12/03 05:28:06;;;;;;;0.80;0.80;;;17.80;74.50;;;;;;4957829;28;20030;-73
2022/12/03 05:30:32;;;;;;;0.90;0.90;;;17.80;74.50;;;;;;4957787;28;20038;-73
2022/12/03 05:32:57;;;;;;;1.10;0.95;;;17.80;74.50;;;;;;4957696;28;20027;-73
2022/12/03 05:35:23;;;;;;;0.82;0.82;;;17.70;74.40;;;;;;4974817;28;20106;-73
2022/12/03 05:37:49;;;;;;;0.82;0.80;;;17.80;74.50;;;;;;4957778;28;20107;-73
2022/12/03 05:40:14;;;;;;;1.15;1.02;;;17.70;74.40;;;;;;4957346;28;20042;-72
2022/12/03 05:42:52;;;;;;;1.02;0.93;;;17.70;74.40;;;;;;4957380;28;20440;-72
2022/12/03 05:45:44;;;;;;;1.00;0.85;;;17.80;74.50;;;;;;4959286;28;20520;-72
2022/12/03 05:48:12;;;;;;;1.08;1.00;;;17.70;74.50;;;;;;4971972;28;20066;-72
2022/12/03 05:50:39;;;;;;;1.00;0.90;;;17.70;74.50;;;;;;4957469;28;20017;-72
2022/12/03 05:53:05;;;;;;;1.00;0.90;;;17.70;74.50;;;;;;4957643;28;20126;-72
2022/12/03 05:55:30;;;;;;;1.80;0.80;;;17.70;74.40;;;;;;4956902;28;20464;-72
2022/12/03 05:57:56;;;;;;;3.00;1.00;;;17.80;74.40;;;;;;4957185;28;20428;-72
2022/12/03 06:00:30;;;;;;;1.25;0.80;;;17.70;74.40;;;;;;4941363;28;20074;-72
2022/12/03 06:02:55;;;;;;;1.10;0.68;;;17.70;74.40;;;;;;4957207;28;20573;-72
2022/12/03 06:05:21;;;;;;;1.00;0.90;;;17.70;74.40;;;;;;4957037;28;20110;-71
2022/12/03 06:07:48;;;;;;;1.42;1.00;;;17.70;74.40;;;;;;4960158;28;20089;-72
2022/12/03 06:10:15;;;;;;;2.05;0.95;;;17.70;74.40;;;;;;4992968;28;20026;-72
2022/12/03 06:12:41;;;;;;;1.15;1.05;;;17.70;74.40;;;;;;4976267;28;20014;-72
2022/12/03 06:15:07;;;;;;;0.80;0.80;;;17.70;74.40;;;;;;4976458;28;20032;-72
2022/12/03 06:17:33;;;;;;;0.90;0.90;;;17.70;74.50;;;;;;4975536;28;20018;-72
2022/12/03 06:19:59;;;;;;;0.80;0.80;;;17.70;74.50;;;;;;4974356;28;20452;-72
2022/12/03 06:22:24;;;;;;;0.80;0.80;;;17.70;74.60;;;;;;4941109;28;20023;-72
2022/12/03 06:24:50;;;;;;;1.35;1.17;;;17.70;74.60;;;;;;4977985;28;20021;-72
2022/12/03 06:27:16;;;;;;;0.82;0.82;;;17.70;74.60;;;;;;4980598;28;20033;-72
2022/12/03 06:29:41;;;;;;;1.55;1.00;;;17.70;74.60;;;;;;4993019;28;20030;-72
2022/12/03 06:32:07;;;;;;;0.90;0.85;;;17.70;74.60;;;;;;4991934;28;20023;-72
2022/12/03 06:34:33;;;;;;;2.45;0.95;;;17.70;74.70;;;;;;4991846;28;20038;-72
2022/12/03 06:36:58;;;;;;;0.68;0.60;;;17.70;74.70;;;;;;4975726;28;20493;-72
2022/12/03 06:39:24;;;;;;;2.08;0.93;;;17.70;74.70;;;;;;4991429;28;20026;-72
2022/12/03 06:41:50;;;;;;;1.48;0.90;;;17.70;74.70;;;;;;4992910;28;20030;-72
2022/12/03 06:44:15;;;;;;;1.08;0.80;;;17.70;74.70;;;;;;4991674;28;20038;-72
2022/12/03 06:46:41;;;;;;;1.00;0.80;;;17.70;74.80;;;;;;4992705;28;20039;-72
2022/12/03 06:49:08;;;;;;;1.80;0.80;;;17.70;74.80;;;;;;4991605;28;20052;-72
2022/12/03 06:51:34;;;;;;;1.35;0.90;;;17.70;74.80;;;;;;4991604;28;20021;-72
2022/12/03 06:54:00;;;;;;;1.00;0.85;;;17.70;74.80;;;;;;4991447;28;20027;-72
2022/12/03 06:56:26;;;;;;;0.80;0.80;;;17.70;74.80;;;;;;4991492;28;20508;-72
2022/12/03 06:58:51;;;;;;;0.80;0.80;;;17.70;74.80;;;;;;4992755;28;20030;-72
2022/12/03 07:01:17;;;;;;;0.75;0.75;;;17.70;74.80;;;;;;4992876;28;20023;-72
2022/12/03 07:03:43;;;;;;;1.35;1.10;;;17.70;74.90;;;;;;4991646;28;20084;-72
2022/12/03 07:06:08;;;;;;;1.30;1.00;;;17.70;74.90;;;;;;4992317;28;20030;-72
2022/12/03 07:08:34;;;;;;;1.33;0.77;;;17.70;75.00;;;;;;4984727;28;20113;-72
2022/12/03 07:11:00;;;;;;;0.98;0.80;;;17.70;74.90;;;;;;4975309;28;20026;-72
2022/12/03 07:13:25;;;;;;;1.05;0.77;;;17.70;74.90;;;;;;4975635;28;20101;-72
2022/12/03 07:15:51;;;;;;;0.80;0.80;;;17.70;74.90;;;;;;4992564;28;20031;-72
2022/12/03 07:18:16;;;;;;;1.00;0.90;;;17.70;75.00;;;;;;4968978;28;20396;-72
2022/12/03 07:20:42;;;;;;;1.00;0.95;;;17.70;74.90;;;;;;4956064;28;20031;-72
2022/12/03 07:23:08;;;;;;;1.05;0.65;;;17.70;74.90;;;;;;4959659;28;20485;-72
2022/12/03 07:25:33;;;;;;;0.82;0.82;;;17.70;74.90;;;;;;4976530;28;20174;-72
2022/12/03 07:27:59;;;;;;;0.75;0.70;;;17.70;74.90;;;;;;4959605;28;20023;-72
2022/12/03 07:30:26;;;;;;;0.80;0.80;;;17.70;74.90;;;;;;4959434;28;20054;-72
2022/12/03 07:32:52;;;;;;;2.15;1.20;;;17.70;75.00;;;;;;4976735;28;20027;-72
2022/12/03 07:35:18;;;;;;;1.08;1.00;;;17.70;74.90;;;;;;4959207;28;20026;-72
2022/12/03 07:37:43;;;;;;;0.95;0.82;;;17.70;74.90;;;;;;4959069;28;20033;-72
2022/12/03 07:40:09;;;;;;;2.83;0.90;;;17.70;74.90;;;;;;4976428;28;20030;-72
2022/12/03 07:42:35;;;;;;;1.00;0.90;;;17.70;75.00;;;;;;4959183;28;20049;-72
2022/12/03 07:45:01;;;;;;;0.90;0.90;;;17.70;74.90;;;;;;4976422;28;20485;-72
2022/12/03 07:47:26;;;;;;;1.33;1.20;;;17.70;75.00;;;;;;4976414;28;20038;-72
2022/12/03 07:49:52;;;;;;;0.88;0.88;;;17.70;75.00;;;;;;4977148;28;20082;-72
2022/12/03 07:52:18;;;;;;;1.25;1.15;;;17.70;75.00;;;;;;4977649;28;20484;-72
2022/12/03 07:54:43;;;;;;;3.55;1.17;;;17.70;74.40;;;;;;4994963;28;20077;-72
2022/12/03 07:57:09;;;;;;;2.00;1.40;;;17.60;73.40;;;;;;4977774;28;20066;-72
2022/12/03 07:59:34;;;;;;;2.55;1.45;;;17.60;72.80;;;;;;4995123;28;20101;-71
2022/12/03 08:02:01;;;;;;;2.70;1.35;;;17.60;72.50;;;;;;4994729;28;20030;-72
2022/12/03 08:04:27;;;;;;;2.65;1.40;;;17.60;72.70;;;;;;4977827;28;20050;-72
2022/12/03 08:06:52;;;;;;;1.92;1.35;;;17.60;72.70;;;;;;4976764;28;20539;-71
2022/12/03 08:09:18;;;;;;;2.85;1.40;;;17.50;72.60;;;;;;4992694;28;20026;-71
2022/12/03 08:11:45;;;;;;;8.95;1.77;;;17.50;72.60;;;;;;4994586;28;20397;-71
2022/12/03 08:14:12;;;;;;;2.38;1.50;;;17.50;72.60;;;;;;4977266;28;20072;-70
2022/12/03 08:16:39;;;;;;;3.45;1.70;;;17.50;72.50;;;;;;4977232;28;20394;-71
2022/12/03 08:19:09;;;;;;;2.45;1.90;;;17.50;72.40;;;;;;4973810;28;20023;-73
2022/12/03 08:21:34;;;;;;;3.58;1.38;;;17.50;72.30;;;;;;4975152;28;20177;-72
2022/12/03 08:24:10;;;;;;;2.67;1.67;;;17.50;72.30;;;;;;4973771;28;20106;-72
2022/12/03 08:26:36;;;;;;;8.70;1.70;;;17.50;72.40;;;;;;4973388;28;20129;-72
2022/12/03 08:29:04;;;;;;;2.00;1.63;;;17.50;72.40;;;;;;4973627;28;20117;-71
2022/12/03 08:31:31;;;;;;;2.92;1.73;;;17.50;72.50;;;;;;4973640;28;20027;-72
2022/12/03 08:34:05;;;;;;;2.05;1.80;;;17.50;72.40;;;;;;4972788;28;20026;-72
2022/12/03 08:36:32;;;;;;;1.73;1.55;;;17.50;72.40;;;;;;4973712;28;20053;-72
2022/12/03 08:38:59;;;;;;;1.75;1.65;;;17.50;72.40;;;;;;4973510;28;20023;-71
2022/12/03 08:44:20;;;;;;;1.60;1.50;;;17.40;72.20;;;;;;4973813;28;20091;-72
2022/12/03 08:46:50;;;;;;;2.35;1.70;;;17.40;72.30;;;;;;4973272;28;20034;-72
2022/12/03 08:49:16;;;;;;;2.22;1.52;;;17.40;72.30;;;;;;4973263;28;20027;-71
2022/12/03 08:51:41;;;;;;;3.78;1.77;;;17.40;72.30;;;;;;4973317;28;20485;-71
2022/12/03 08:54:13;;;;;;;2.25;1.55;;;17.40;72.30;;;;;;4977290;28;20022;-71
2022/12/03 08:56:39;;;;;;;3.47;1.80;;;17.40;72.40;;;;;;4975774;28;20290;-71
2022/12/03 08:59:22;;;;;;;2.85;2.10;;;17.40;72.30;;;;;;4960991;28;20030;-71
2022/12/03 09:01:48;;;;;;;2.45;1.73;;;17.40;72.30;;;;;;4993522;28;20022;-71
2022/12/03 09:04:37;;;;;;;2.63;1.98;;;17.40;72.30;;;;;;4973201;28;20034;-71
2022/12/03 09:07:02;;;;;;;2.22;1.90;;;17.40;72.20;;;;;;4993620;28;20409;-71
2022/12/03 09:09:28;;;;;;;2.95;2.10;;;17.40;72.10;;;;;;4993478;28;20026;-70
2022/12/03 09:11:55;;;;;;;2.75;1.88;;;17.40;72.20;;;;;;4992860;28;20026;-70
2022/12/03 09:14:22;;;;;;;3.03;2.13;;;17.40;72.10;;;;;;4993015;28;20097;-71
2022/12/03 09:16:50;;;;;;;2.80;2.20;;;17.40;72.10;;;;;;4976790;28;20033;-71
2022/12/03 09:19:16;;;;;;;2.33;2.10;;;17.40;72.00;;;;;;4981714;28;20022;-71
2022/12/03 09:21:41;;;;;;;4.30;2.30;;;17.40;72.00;;;;;;4993974;28;20038;-71
2022/12/03 09:24:07;;;;;;;2.45;2.25;;;17.30;72.00;;;;;;4976614;28;20106;-71
2022/12/03 09:26:33;;;;;;;2.83;2.25;;;17.30;71.90;;;;;;4993773;28;20121;-71
2022/12/03 09:28:58;;;;;;;2.90;2.28;;;17.40;72.00;;;;;;4993216;28;20019;-71
2022/12/03 09:31:24;;;;;;;2.80;2.40;;;17.30;71.90;;;;;;4972936;28;20023;-71
2022/12/03 09:33:50;;;;;;;3.92;2.60;;;17.40;73.00;;;;;;4974748;28;21414;-71
2022/12/03 09:36:15;;;;;;;2.63;2.05;;;17.30;72.00;;;;;;4974909;28;20097;-71
2022/12/03 09:38:41;;;;;;;3.05;2.58;;;17.40;72.00;;;;;;4990014;28;20444;-71
2022/12/03 09:41:07;;;;;;;3.20;2.58;;;17.30;71.80;;;;;;4991979;28;20463;-71
2022/12/03 09:43:33;;;;;;;2.55;2.10;;;17.30;71.80;;;;;;4956578;28;20015;-71
2022/12/03 09:45:59;;;;;;;3.30;2.30;;;17.30;71.90;;;;;;4973784;28;20331;-71
2022/12/03 09:48:24;;;;;;;13.90;4.28;;;17.30;72.90;;;;;;4974351;28;20420;-72
2022/12/03 09:50:50;;;;;;;47.97;8.65;;;17.30;71.90;;;;;;4979655;28;20033;-71
2022/12/03 09:53:18;;;;;;;33.42;7.43;;;17.30;72.80;;;;;;4960854;28;20504;-72
2022/12/03 09:55:44;;;;;;;26.92;6.68;;;17.30;73.10;;;;;;4959835;28;20048;-72
2022/12/03 09:58:14;;;;;;;30.23;6.72;;;17.30;73.50;;;;;;4992951;28;20072;-72
2022/12/03 10:00:40;;;;;;;17.90;5.68;;;17.30;73.80;;;;;;4991863;28;20120;-72
2022/12/03 10:03:06;;;;;;;25.35;6.05;;;17.40;73.90;;;;;;4973547;28;20034;-72
2022/12/03 10:05:32;;;;;;;25.08;6.53;;;17.30;74.00;;;;;;4959003;28;20038;-72
2022/12/03 10:08:11;;;;;;;23.63;5.75;;;17.30;73.90;;;;;;4974625;28;20042;-72
2022/12/03 10:10:40;;;;;;;23.80;5.40;;;17.30;73.90;;;;;;4975169;28;20023;-72
2022/12/03 10:13:08;;;;;;;18.00;6.13;;;17.30;73.90;;;;;;4975644;28;20022;-72
2022/12/03 10:15:34;;;;;;;27.08;6.43;;;17.30;73.80;;;;;;4975782;28;20030;-72
2022/12/03 10:18:00;;;;;;;21.13;6.72;;;17.30;73.80;;;;;;4959353;28;20041;-72
2022/12/03 10:20:26;;;;;;;20.55;6.03;;;17.30;73.80;;;;;;4976016;28;20113;-72
2022/12/03 10:22:52;;;;;;;21.35;7.05;;;17.30;73.80;;;;;;4992988;28;20105;-72
2022/12/03 10:25:20;;;;;;;16.02;6.03;;;17.30;73.80;;;;;;4975644;28;20030;-72
2022/12/03 10:27:59;;;;;;;14.60;5.50;;;17.30;73.80;;;;;;4975701;28;20018;-72
2022/12/03 10:30:27;;;;;;;15.52;5.72;;;17.30;73.70;;;;;;4975700;28;20504;-72
2022/12/03 10:32:53;;;;;;;11.45;4.40;;;17.30;73.60;;;;;;4975576;28;20029;-72
2022/12/03 10:35:23;;;;;;;16.08;5.97;;;17.30;73.50;;;;;;4975649;28;20038;-72
2022/12/03 10:38:06;;;;;;;13.95;4.80;;;17.30;73.40;;;;;;4975598;28;20481;-72
2022/12/03 10:40:35;;;;;;;18.20;5.55;;;17.30;73.50;;;;;;4975757;28;20062;-72
2022/12/03 10:43:14;;;;;;;11.57;5.32;;;17.30;73.40;;;;;;4992830;28;20027;-72
2022/12/03 10:45:40;;;;;;;12.90;5.10;;;17.30;73.30;;;;;;4975191;28;20045;-72
2022/12/03 10:48:08;;;;;;;12.35;5.30;;;17.30;73.30;;;;;;4975390;28;20072;-72
2022/12/03 10:50:34;;;;;;;14.68;6.03;;;17.30;73.20;;;;;;4992731;28;20048;-72
2022/12/03 10:53:00;;;;;;;14.98;5.47;;;17.30;73.10;;;;;;4975421;28;20052;-72
2022/12/03 10:55:27;;;;;;;15.02;6.18;;;17.30;73.00;;;;;;4975509;28;20033;-72
2022/12/03 10:57:53;;;;;;;12.77;5.22;;;17.30;73.00;;;;;;4979019;28;20113;-72
2022/12/03 11:00:19;;;;;;;13.48;5.43;;;17.30;73.00;;;;;;4978938;28;20113;-72
2022/12/03 11:02:45;;;;;;;13.77;5.57;;;17.30;72.80;;;;;;4979326;28;20014;-72
2022/12/03 11:05:19;;;;;;;14.70;5.63;;;17.30;72.80;;;;;;4979055;28;20032;-72
2022/12/03 11:07:44;;;;;;;13.40;5.07;;;17.30;72.80;;;;;;4961035;28;20031;-72
2022/12/03 11:10:16;;;;;;;11.75;5.15;;;17.30;72.80;;;;;;4956339;29;20086;-72
2022/12/03 11:13:02;;;;;;;9.82;4.65;;;17.20;72.60;;;;;;4940616;29;20030;-72
2022/12/03 11:15:43;;;;;;;13.27;5.55;;;17.20;72.60;;;;;;4956398;29;20594;-72
2022/12/03 11:18:09;;;;;;;13.43;5.47;;;17.20;72.60;;;;;;4940216;29;20059;-72
2022/12/03 11:20:34;;;;;;;11.48;5.25;;;17.20;72.60;;;;;;4940391;29;20491;-72
2022/12/03 11:23:00;;;;;;;14.15;5.15;;;17.20;72.60;;;;;;4957467;29;20559;-72
2022/12/03 11:25:26;;;;;;;12.55;4.70;;;17.20;72.50;;;;;;4957462;29;20027;-72
2022/12/03 11:28:13;;;;;;;11.43;5.22;;;17.20;72.60;;;;;;4956417;29;20489;-71
2022/12/03 11:30:48;;;;;;;11.43;5.03;;;17.20;72.50;;;;;;4953157;29;20110;-72
2022/12/03 11:33:20;;;;;;;12.13;5.40;;;17.20;72.50;;;;;;4957580;28;20039;-71
2022/12/03 11:36:04;;;;;;;10.50;4.53;;;17.20;72.50;;;;;;4957048;28;20027;-72
2022/12/03 11:38:36;;;;;;;9.68;4.97;;;17.20;72.50;;;;;;4957556;28;20033;-72
2022/12/03 11:41:25;;;;;;;9.67;5.17;;;17.20;72.40;;;;;;4957763;28;20065;-72
2022/12/03 11:43:51;;;;;;;9.88;4.88;;;17.20;72.50;;;;;;4957252;28;20325;-72
2022/12/03 11:46:30;;;;;;;12.13;5.03;;;17.20;72.50;;;;;;4957119;28;20027;-71
2022/12/03 11:48:56;;;;;;;11.10;5.28;;;17.20;72.40;;;;;;4956969;28;20031;-72
2022/12/03 11:51:23;;;;;;;12.98;5.80;;;17.20;72.40;;;;;;4954351;29;20016;-72
2022/12/03 11:53:50;;;;;;;8.95;4.75;;;17.20;72.50;;;;;;4955796;29;20026;-72
2022/12/03 11:56:21;;;;;;;8.15;4.55;;;17.20;72.50;;;;;;4955136;29;20111;-72
2022/12/03 11:58:47;;;;;;;7.75;4.72;;;17.20;72.40;;;;;;4955801;29;20027;-73
2022/12/03 12:01:13;;;;;;;11.10;5.63;;;17.20;72.20;;;;;;4955750;29;20402;-73
2022/12/03 12:03:44;;;;;;;13.43;5.95;;;17.20;71.60;;;;;;4956101;29;20093;-73
2022/12/03 12:06:11;;;;;;;11.70;6.78;;;17.10;71.20;;;;;;4943145;28;20470;-73
2022/12/03 12:08:39;;;;;;;12.77;6.13;;;17.10;70.70;;;;;;4969265;28;20112;-73
2022/12/03 12:11:27;;;;;;;11.65;6.35;;;17.10;70.40;;;;;;4978361;28;20057;-72
2022/12/03 12:13:55;;;;;;;12.02;7.07;;;17.00;70.20;;;;;;4978037;28;20025;-72
2022/12/03 12:16:41;;;;;;;11.18;7.78;;;17.00;70.20;;;;;;4978413;28;20037;-73
2022/12/03 12:19:45;;;;;;;11.15;7.13;;;16.90;69.80;;;;;;4982410;28;20027;-73
2022/12/03 12:22:26;;;;;;;10.50;6.90;;;16.90;69.70;;;;;;4975567;28;20122;-73
2022/12/03 12:24:55;;;;;;;12.55;7.75;;;16.80;69.30;;;;;;4975960;28;20094;-73
2022/12/03 12:27:24;;;;;;;12.40;7.53;;;16.80;69.20;;;;;;4959071;28;20046;-73
2022/12/03 12:29:54;;;;;;;13.07;7.47;;;16.80;69.20;;;;;;4976410;28;20081;-73
2022/12/03 12:32:25;;;;;;;11.20;8.13;;;16.70;69.00;;;;;;4942301;28;20457;-73
2022/12/03 12:34:52;;;;;;;10.80;7.97;;;16.70;68.90;;;;;;4958643;28;20415;-73
2022/12/03 12:37:21;;;;;;;11.80;8.30;;;16.70;68.80;;;;;;4958499;28;20030;-73
2022/12/03 12:39:47;;;;;;;9.57;7.68;;;16.60;68.90;;;;;;4975898;28;20385;-73
2022/12/03 12:42:29;;;;;;;9.40;7.68;;;16.60;68.90;;;;;;4958192;28;20027;-72
2022/12/03 12:45:19;;;;;;;10.95;8.43;;;16.60;68.90;;;;;;4958436;28;20046;-72
2022/12/03 12:48:08;;;;;;;10.45;7.53;;;16.60;68.70;;;;;;4961049;28;20133;-72
2022/12/03 12:50:37;;;;;;;9.98;7.70;;;16.60;68.50;;;;;;4959774;28;20023;-73
2022/12/03 12:53:20;;;;;;;11.13;7.78;;;16.50;68.60;;;;;;4958250;28;20030;-72
2022/12/03 12:55:47;;;;;;;10.90;7.95;;;16.40;68.60;;;;;;4958300;28;20046;-72
2022/12/03 12:58:14;;;;;;;11.68;8.23;;;16.40;68.60;;;;;;4958172;28;20118;-73
2022/12/03 13:00:40;;;;;;;8.98;7.70;;;16.40;68.50;;;;;;4975657;28;20026;-73
2022/12/03 13:03:06;;;;;;;8.75;7.18;;;16.40;68.50;;;;;;4958348;28;20019;-73
2022/12/03 13:05:42;;;;;;;11.77;7.80;;;16.40;68.60;;;;;;4975112;28;20035;-73
2022/12/03 13:08:29;;;;;;;9.75;7.28;;;16.30;68.50;;;;;;4981148;28;20445;-73
2022/12/03 13:11:04;;;;;;;10.13;7.20;;;16.30;69.50;;;;;;4977578;28;20033;-72
2022/12/03 13:13:38;;;;;;;11.77;7.38;;;16.30;68.50;;;;;;4977289;28;20026;-72